Weather History for Statesville, NC

Change the Weather History Date:

Monday, March 10, 2014

  Actual Average (KHKY) Record (KHKY)
Temperature  
Mean Temperature 51 °F -  
Max Temperature 72 °F 59 °F 76 °F (1974)
Min Temperature 30 °F 36 °F 18 °F (1960)
Degree Days  
Heating Degree Days 14    
Growing Degree Days 1 (Base 50)    
Moisture  
Dew Point 30 °F    
Average Humidity 43    
Maximum Humidity 86    
Minimum Humidity 22    
Precipitation  
Precipitation 0.00 in - - ()
Sea Level Pressure  
Sea Level Pressure 29.91 in    
Wind  
Wind Speed 4 mph (WSW)    
Max Wind Speed 13 mph    
Max Gust Speed 22 mph    
Visibility 10 miles    
Events      
Averages and records for this station are not official NWS values.
T = Trace of Precipitation, MM = Missing Value Source: NWS Daily Summary

Daily Weather History Graph

Daily Weather History Graph

Search for Another Location

Airport:

Trip Planner

Search our weather history database for the weather conditions in past years. The results will help you decide how hot, cold, wet, or windy it might be!

Date:

Astronomy

Mar. 10, 2014 Rise Set
Actual Time 7:41 AM EDT 7:27 PM EDT
Civil Twilight 7:16 AM EDT 7:52 PM EDT
Nautical Twilight 6:46 AM EDT 8:22 PM EDT
Astronomical Twilight 6:16 AM EDT 8:51 PM EDT
Moon 2:17 PM EDT (3/10) 3:44 AM EDT (3/10)
Length of Visible Light 12h 36m
Length of Day
11h 45m
Waxing Gibbous, 70% of the Moon is Illuminated
Mar 10
Waxing Gibbous
Mar 16
Full
Mar 23
Last Quarter
Mar 30
New
Apr 7
First Quarter

Hourly Weather History & Observations

Time (EDT) Temp. Windchill Dew Point Humidity Pressure Visibility Wind Dir Wind Speed Gust Speed Precip Events Conditions
12:15 AM 51.1 °F - 25.5 °F 37% 30.04 in 10.0 mi NW 3.5 mph - N/A   Clear
12:35 AM 45.7 °F - 27.0 °F 48% 30.04 in 10.0 mi Calm Calm - N/A   Clear
12:55 AM 44.8 °F - 27.5 °F 51% 30.03 in 10.0 mi Calm Calm - N/A   Clear
1:15 AM 48.4 °F - 25.7 °F 41% 30.01 in 10.0 mi Calm Calm - N/A   Clear
1:35 AM 44.4 °F - 26.6 °F 50% 30.01 in 10.0 mi Calm Calm - N/A   Clear
1:55 AM 48.0 °F - 24.1 °F 39% 30.01 in 10.0 mi WNW 3.5 mph - N/A   Clear
2:15 AM 48.4 °F - 24.3 °F 39% 30.01 in 10.0 mi Calm Calm - N/A   Clear
2:35 AM 40.8 °F - 25.9 °F 55% 30.00 in 10.0 mi Calm Calm - N/A   Clear
2:55 AM 37.4 °F - 26.6 °F 65% 29.99 in 10.0 mi Calm Calm - N/A   Clear
3:15 AM 41.7 °F - 25.0 °F 52% 29.99 in 10.0 mi Calm Calm - N/A   Clear
3:35 AM 39.0 °F - 26.4 °F 61% 29.98 in 10.0 mi Calm Calm - N/A   Clear
3:55 AM 36.0 °F - 27.7 °F 72% 29.98 in 10.0 mi Calm Calm - N/A   Clear
4:15 AM 39.9 °F - 25.9 °F 57% 29.97 in 10.0 mi Calm Calm - N/A   Clear
4:35 AM 32.7 °F - 26.8 °F 79% 29.97 in 10.0 mi Calm Calm - N/A   Clear
4:55 AM 38.3 °F 35.9 °F 26.1 °F 61% 29.97 in 10.0 mi West 3.5 mph - N/A   Clear
5:15 AM 35.4 °F 32.6 °F 25.7 °F 68% 29.97 in 10.0 mi West 3.5 mph - N/A   Clear
5:35 AM 32.0 °F - 25.7 °F 78% 29.97 in 10.0 mi Calm Calm - N/A   Clear
5:55 AM 31.5 °F 25.8 °F 26.1 °F 80% 29.96 in 10.0 mi WSW 5.8 mph - N/A   Clear
6:15 AM 40.6 °F 34.8 °F 25.2 °F 54% 29.96 in 10.0 mi West 9.2 mph - N/A   Clear
6:35 AM 35.1 °F 30.1 °F 25.5 °F 68% 29.96 in 10.0 mi West 5.8 mph - N/A   Clear
6:55 AM 31.6 °F 27.0 °F 26.1 °F 80% 29.96 in 10.0 mi West 4.6 mph - N/A   Clear
7:15 AM 30.0 °F 25.2 °F 26.2 °F 86% 29.96 in 10.0 mi SW 4.6 mph - N/A   Clear
7:35 AM 34.3 °F - 25.5 °F 70% 29.96 in 10.0 mi Calm Calm - N/A   Clear
7:55 AM 31.1 °F 26.4 °F 25.9 °F 81% 29.97 in 10.0 mi SW 4.6 mph - N/A   Clear
8:15 AM 39.6 °F 37.4 °F 26.1 °F 58% 29.96 in 10.0 mi SW 3.5 mph - N/A   Clear
8:35 AM 43.7 °F 39.1 °F 26.6 °F 51% 29.97 in 10.0 mi WNW 8.1 mph - N/A   Clear
8:55 AM 39.6 °F 36.3 °F 30.6 °F 70% 29.98 in 10.0 mi WSW 4.6 mph - N/A   Clear
9:15 AM 47.8 °F - 29.1 °F 48% 29.97 in 10.0 mi Calm Calm - N/A   Clear
9:35 AM 51.1 °F - 30.0 °F 44% 29.97 in 10.0 mi WSW 5.8 mph - N/A   Clear
9:55 AM 53.6 °F - 27.9 °F 37% 29.98 in 10.0 mi West 3.5 mph - N/A   Clear
10:15 AM 55.6 °F - 27.1 °F 34% 29.98 in 10.0 mi West 6.9 mph - N/A   Clear
10:35 AM 57.0 °F - 27.5 °F 32% 29.97 in 10.0 mi West 5.8 mph - N/A   Clear
10:55 AM 59.9 °F - 32.2 °F 35% 29.96 in 10.0 mi West 9.2 mph 17.3 mph N/A   Clear
11:15 AM 60.8 °F - 34.7 °F 38% 29.96 in 10.0 mi WNW 12.7 mph - N/A   Clear
11:35 AM 61.7 °F - 35.4 °F 38% 29.95 in 10.0 mi WNW 10.4 mph 21.9 mph N/A   Clear
11:55 AM 62.2 °F - 33.6 °F 34% 29.95 in 10.0 mi West 10.4 mph - N/A   Clear
12:15 PM 62.6 °F - 32.2 °F 32% 29.95 in 10.0 mi WSW 6.9 mph - N/A   Clear
12:35 PM 64.6 °F - 33.6 °F 32% 29.94 in 10.0 mi West 10.4 mph - N/A   Clear
12:55 PM 65.7 °F - 34.0 °F 31% 29.93 in 10.0 mi West 9.2 mph - N/A   Clear
1:15 PM 65.8 °F - 30.6 °F 27% 29.92 in 10.0 mi WSW 9.2 mph - N/A   Clear
1:35 PM 67.6 °F - 32.5 °F 27% 29.92 in 10.0 mi SW 5.8 mph - N/A   Clear
1:55 PM 66.9 °F - 32.7 °F 28% 29.90 in 10.0 mi South 5.8 mph - N/A   Clear
2:15 PM 67.5 °F - 34.0 °F 29% 29.89 in 10.0 mi SSW 9.2 mph - N/A   Clear
2:35 PM 68.5 °F - 29.7 °F 23% 29.87 in 10.0 mi South 9.2 mph - N/A   Clear
2:55 PM 68.4 °F - 28.2 °F 22% 29.86 in 10.0 mi SW 8.1 mph 16.1 mph N/A   Clear
3:15 PM 69.3 °F - 28.4 °F 22% 29.85 in 10.0 mi SW 6.9 mph - N/A   Clear
3:35 PM 69.8 °F - 29.1 °F 22% 29.84 in 10.0 mi SW 10.4 mph - N/A   Clear
3:50 PM 70.2 °F - 29.1 °F 22% 29.84 in 10.0 mi South 10.4 mph - N/A   Clear
4:15 PM 70.9 °F - 30.0 °F 22% 29.83 in 10.0 mi SSW 6.9 mph - N/A   Clear
4:35 PM 71.4 °F - 30.6 °F 22% 29.82 in 10.0 mi WSW 6.9 mph - N/A   Clear
4:55 PM 72.0 °F - 30.6 °F 22% 29.81 in 10.0 mi SW 5.8 mph - N/A   Clear
5:15 PM 71.1 °F - 31.3 °F 23% 29.81 in 10.0 mi SSW 8.1 mph - N/A   Clear
5:35 PM 70.9 °F - 32.2 °F 24% 29.81 in 10.0 mi SW 6.9 mph - N/A   Clear
5:55 PM 71.8 °F - 32.9 °F 24% 29.80 in 10.0 mi WSW 8.1 mph - N/A   Clear
6:15 PM 70.7 °F - 33.8 °F 26% 29.81 in 10.0 mi SW 6.9 mph - N/A   Clear
6:35 PM 68.9 °F - 35.8 °F 30% 29.80 in 10.0 mi SW 4.6 mph - N/A   Clear
6:55 PM 68.2 °F - 36.5 °F 31% 29.81 in 10.0 mi SW 3.5 mph - N/A   Clear
7:15 PM 68.0 °F - 37.8 °F 33% 29.81 in 10.0 mi WSW 4.6 mph - N/A   Clear
7:35 PM 67.3 °F - 37.4 °F 33% 29.82 in 10.0 mi WSW 4.6 mph - N/A   Clear
7:55 PM 66.4 °F - 36.1 °F 33% 29.82 in 10.0 mi SW 3.5 mph - N/A   Clear
8:15 PM 63.1 °F - 36.0 °F 36% 29.82 in 10.0 mi SW 3.5 mph - N/A   Clear
8:30 PM 62.4 °F - 35.4 °F 37% 29.82 in 10.0 mi SW 3.5 mph - N/A   Clear
8:55 PM 63.0 °F - 34.2 °F 34% 29.83 in 10.0 mi SW 3.5 mph - N/A   Clear
9:15 PM 58.6 °F - 35.2 °F 42% 29.83 in 10.0 mi WSW 5.8 mph - N/A   Clear
9:35 PM 60.6 °F - 34.2 °F 37% 29.83 in 10.0 mi Calm Calm - N/A   Clear
9:55 PM 56.7 °F - 34.7 °F 44% 29.84 in 10.0 mi Calm Calm - N/A   Clear
10:15 PM 56.7 °F - 34.9 °F 44% 29.84 in 10.0 mi Calm Calm - N/A   Clear
10:35 PM 57.7 °F - 34.9 °F 42% 29.84 in 10.0 mi West 3.5 mph - N/A   Clear
10:55 PM 56.5 °F - 34.7 °F 44% 29.84 in 10.0 mi West 4.6 mph - N/A   Clear
11:15 PM 55.4 °F - 32.2 °F 41% 29.84 in 10.0 mi West 3.5 mph - N/A   Clear
11:35 PM 54.3 °F - 32.0 °F 43% 29.83 in 10.0 mi Calm Calm - N/A   Clear
11:55 PM 54.3 °F - 34.2 °F 47% 29.82 in 10.0 mi NNW 3.5 mph - N/A   Clear